Time;durP1;ratioP1;P1;durP2;ratioP2;P2;SDS_P1;SDS_P2;PMS_P1;PMS_P2;Temp;Humidity;BMP_temperature;BMP_pressure;BME280_temperature;BME280_humidity;BME280_pressure;Samples;Min_cycle;Max_cycle;Signal;HPM_P1;HPM_P2
2022/01/10 00:00:42;;;;;;;176.30;55.50;;;;;;;0.12;68.78;97879.44;108692;1274;24227;-72
2022/01/10 00:03:09;;;;;;;231.30;66.40;;;;;;;0.11;68.81;97880.99;108233;1275;22559;-72
2022/01/10 00:05:36;;;;;;;192.80;54.50;;;;;;;0.10;68.76;97881.02;108233;1274;22583;-78
2022/01/10 00:08:04;;;;;;;134.10;41.00;;;;;;;0.09;68.70;97882.98;108163;1276;22595;-72
2022/01/10 00:10:33;;;;;;;108.20;35.30;;;;;;;0.09;68.79;97882.64;108185;1275;22576;-74
2022/01/10 00:13:00;;;;;;;88.40;32.70;;;;;;;0.13;68.86;97884.52;108225;1275;22607;-72
2022/01/10 00:15:27;;;;;;;125.60;39.10;;;;;;;0.17;69.24;97887.83;108173;1275;22690;-72
2022/01/10 00:17:54;;;;;;;115.50;37.20;;;;;;;0.20;69.78;97889.76;108169;1274;22627;-73
2022/01/10 00:20:21;;;;;;;107.30;37.70;;;;;;;0.20;70.04;97889.56;108199;1274;22705;-72
2022/01/10 00:22:49;;;;;;;87.80;32.40;;;;;;;0.22;69.92;97893.64;108206;1274;22586;-73
2022/01/10 00:25:20;;;;;;;68.80;29.40;;;;;;;0.23;69.75;97894.96;108285;1274;22546;-74
2022/01/10 00:27:49;;;;;;;70.40;27.50;;;;;;;0.23;69.89;97896.85;108197;1274;23078;-72
2022/01/10 00:30:16;;;;;;;60.70;27.10;;;;;;;0.24;69.48;97899.21;108198;1274;22547;-76
2022/01/10 00:32:45;;;;;;;45.30;21.80;;;;;;;0.22;69.52;97899.29;108251;1274;22707;-76
2022/01/10 00:35:12;;;;;;;56.20;23.80;;;;;;;0.18;69.69;97902.33;108548;1273;22549;-77
2022/01/10 00:37:42;;;;;;;49.90;21.70;;;;;;;0.16;69.52;97908.05;108196;1274;22560;-76
2022/01/10 00:40:12;;;;;;;51.40;23.50;;;;;;;0.15;69.72;97909.10;108210;1274;24364;-77
2022/01/10 00:42:40;;;;;;;52.30;23.10;;;;;;;0.16;69.86;97918.00;108207;1274;22597;-76
2022/01/10 00:45:17;;;;;;;51.50;23.10;;;;;;;0.21;70.09;97921.74;108321;1274;24313;-77
2022/01/10 00:47:46;;;;;;;59.00;24.10;;;;;;;0.24;70.57;97920.97;108242;1274;22530;-77
2022/01/10 00:50:14;;;;;;;48.90;22.00;;;;;;;0.26;71.04;97923.98;108233;1274;22626;-77
2022/01/10 00:52:41;;;;;;;48.30;22.40;;;;;;;0.26;71.11;97924.48;108833;1274;22585;-77
2022/01/10 00:55:09;;;;;;;50.00;22.40;;;;;;;0.26;71.15;97933.20;108231;1274;22554;-76
2022/01/10 00:57:36;;;;;;;52.10;21.30;;;;;;;0.29;70.93;97933.11;108219;1274;23990;-76
2022/01/10 01:00:09;;;;;;;40.50;18.90;;;;;;;0.26;71.38;97933.20;108226;1274;22570;-75
2022/01/10 01:02:36;;;;;;;40.20;17.90;;;;;;;0.26;70.62;97934.43;108243;1274;22561;-76
2022/01/10 01:05:06;;;;;;;34.50;16.80;;;;;;;0.22;70.99;97937.63;108215;1274;22567;-76
2022/01/10 01:07:34;;;;;;;37.30;16.60;;;;;;;0.22;70.66;97937.30;108225;1274;23123;-77
2022/01/10 01:13:01;;;;;;;35.90;16.10;;;;;;;0.18;70.69;97940.70;108228;1274;22601;-77
2022/01/10 01:15:34;;;;;;;39.30;18.00;;;;;;;0.20;71.44;97945.59;108084;1274;180736;-74
2022/01/10 01:26:04;;;;;;;41.40;18.00;;;;;;;0.23;72.14;97954.89;108203;1274;22559;-72
2022/01/10 01:28:31;;;;;;;40.40;19.70;;;;;;;0.24;72.09;97959.50;108230;1274;25397;-72
2022/01/10 01:30:58;;;;;;;39.70;19.70;;;;;;;0.24;71.66;97958.29;108221;1274;22561;-77
2022/01/10 01:33:25;;;;;;;44.20;21.70;;;;;;;0.23;71.77;97960.54;108196;1274;24424;-76
2022/01/10 01:35:53;;;;;;;47.90;22.20;;;;;;;0.23;71.72;97962.60;108184;1274;22663;-76
2022/01/10 01:38:20;;;;;;;49.40;23.80;;;;;;;0.23;71.52;97964.83;108246;1274;22562;-76
2022/01/10 01:40:57;;;;;;;48.90;23.80;;;;;;;0.22;71.52;97965.54;108233;1274;23153;-75
2022/01/10 01:43:24;;;;;;;47.40;24.10;;;;;;;0.26;71.72;97964.58;108218;1274;22567;-77
2022/01/10 01:45:51;;;;;;;48.70;25.30;;;;;;;0.28;72.19;97966.54;108180;1274;22620;-73
2022/01/10 01:48:18;;;;;;;45.30;22.60;;;;;;;0.30;72.90;97971.08;108209;1274;25307;-74
2022/01/10 01:50:45;;;;;;;48.70;23.20;;;;;;;0.27;72.69;97975.14;108215;1274;22576;-76
2022/01/10 01:53:13;;;;;;;43.10;21.00;;;;;;;0.26;72.75;97979.11;108213;1274;23576;-73
2022/01/10 01:55:40;;;;;;;35.90;19.40;;;;;;;0.25;72.40;97985.33;108226;1274;22529;-73
2022/01/10 01:58:06;;;;;;;41.40;20.80;;;;;;;0.22;72.42;97982.66;108263;1274;22572;-73
2022/01/10 02:00:34;;;;;;;37.80;19.90;;;;;;;0.21;72.57;97985.61;108435;1274;24404;-77
2022/01/10 02:03:01;;;;;;;38.20;20.60;;;;;;;0.20;72.11;97990.42;108434;1274;22819;-72
2022/01/10 02:05:29;;;;;;;45.10;21.20;;;;;;;0.20;72.40;97991.13;108441;1274;22557;-72
2022/01/10 02:07:56;;;;;;;39.10;20.30;;;;;;;0.24;72.17;97991.86;108442;1274;25423;-72
2022/01/10 02:10:23;;;;;;;42.20;21.60;;;;;;;0.27;72.59;97994.45;108317;1274;22655;-73
2022/01/10 02:12:50;;;;;;;36.60;19.80;;;;;;;0.29;72.79;98001.10;108215;1274;22606;-72
2022/01/10 02:15:47;;;;;;;41.80;20.20;;;;;;;0.27;73.15;98005.09;108218;1274;25223;-77
2022/01/10 02:18:15;;;;;;;42.50;21.40;;;;;;;0.25;73.45;98007.05;108189;1274;23048;-77
2022/01/10 02:20:42;;;;;;;39.30;20.30;;;;;;;0.24;73.11;98009.83;108197;1274;22571;-77
2022/01/10 02:23:09;;;;;;;39.90;21.60;;;;;;;0.25;72.78;98009.64;108187;1274;22534;-77
2022/01/10 02:25:36;;;;;;;41.50;22.10;;;;;;;0.25;72.50;98011.02;108225;1274;23085;-75
2022/01/10 02:28:04;;;;;;;37.50;20.50;;;;;;;0.22;72.67;98012.30;108233;1274;23281;-76
2022/01/10 02:30:31;;;;;;;39.30;19.10;;;;;;;0.21;72.57;98016.95;108416;1274;22548;-72
2022/01/10 02:33:00;;;;;;;39.10;20.50;;;;;;;0.23;72.72;98018.27;108610;1274;22567;-72
2022/01/10 02:35:36;;;;;;;41.50;20.50;;;;;;;0.24;73.19;98018.40;108223;1274;22575;-73
2022/01/10 02:38:04;;;;;;;33.60;17.20;;;;;;;0.26;73.71;98014.41;108218;1274;22624;-72
2022/01/10 02:40:33;;;;;;;34.30;18.80;;;;;;;0.24;73.83;98020.12;108300;1274;22570;-73
2022/01/10 02:43:01;;;;;;;30.60;17.30;;;;;;;0.22;73.68;98023.25;108221;1274;22567;-74
2022/01/10 02:45:28;;;;;;;33.50;18.30;;;;;;;0.21;73.43;98028.60;108221;1274;25367;-77
2022/01/10 02:47:55;;;;;;;35.00;17.50;;;;;;;0.20;73.28;98029.33;108191;1274;22706;-78
2022/01/10 02:50:22;;;;;;;31.10;16.50;;;;;;;0.18;73.30;98028.89;108222;1274;22549;-78
2022/01/10 02:52:49;;;;;;;32.60;18.10;;;;;;;0.17;73.22;98030.27;108224;1274;23192;-78
2022/01/10 02:55:17;;;;;;;36.20;19.10;;;;;;;0.20;73.21;98029.67;108229;1274;22575;-76
2022/01/10 02:57:44;;;;;;;32.10;18.10;;;;;;;0.21;73.49;98032.02;108211;1274;22575;-76
2022/01/10 03:00:18;;;;;;;31.50;16.80;;;;;;;0.23;74.19;98030.60;108219;1274;22570;-74
2022/01/10 03:02:49;;;;;;;;;;;;;;;0.20;74.23;98028.27;108237;1274;22598;-72
2022/01/10 03:05:16;;;;;;;35.10;16.20;;;;;;;0.17;74.03;98030.95;108222;1274;22560;-73
2022/01/10 03:07:44;;;;;;;28.30;16.00;;;;;;;0.15;73.73;98030.02;108211;1274;22584;-74
2022/01/10 03:10:11;;;;;;;34.90;16.40;;;;;;;0.11;73.52;98033.91;108247;1274;23211;-73
2022/01/10 03:12:38;;;;;;;31.10;15.90;;;;;;;0.07;73.47;98038.83;108233;1274;22584;-72
2022/01/10 03:15:07;;;;;;;33.70;16.30;;;;;;;0.05;73.47;98039.75;108175;1274;22522;-73
2022/01/10 03:17:35;;;;;;;31.80;16.80;;;;;;;0.07;73.67;98042.95;108202;1274;22560;-73
2022/01/10 03:20:04;;;;;;;34.70;17.50;;;;;;;0.08;74.14;98042.74;108635;1274;25398;-72
2022/01/10 03:22:32;;;;;;;33.20;16.80;;;;;;;0.08;74.54;98048.20;108208;1274;22570;-72
2022/01/10 03:24:59;;;;;;;35.60;17.60;;;;;;;0.07;74.70;98050.64;108209;1274;22610;-74
2022/01/10 03:27:26;;;;;;;38.30;19.10;;;;;;;0.07;74.54;98052.71;108738;1274;24282;-75
2022/01/10 03:29:54;;;;;;;37.20;18.90;;;;;;;0.06;74.39;98055.99;108207;1274;22556;-73
2022/01/10 03:32:21;;;;;;;38.40;18.40;;;;;;;0.06;74.40;98058.39;108233;1274;22557;-72
2022/01/10 03:34:47;;;;;;;36.00;18.20;;;;;;;0.05;74.36;98060.64;108223;1274;22571;-72
2022/01/10 03:37:14;;;;;;;33.30;17.50;;;;;;;0.04;74.44;98064.26;108229;1274;22564;-76
2022/01/10 03:39:42;;;;;;;36.10;17.90;;;;;;;0.04;74.30;98069.39;108217;1274;22581;-74
2022/01/10 03:42:08;;;;;;;32.40;18.50;;;;;;;0.09;74.07;98071.45;108189;1274;22574;-74
2022/01/10 03:44:35;;;;;;;33.40;18.80;;;;;;;0.13;74.15;98074.58;108236;1274;22572;-73
2022/01/10 03:47:05;;;;;;;33.50;18.70;;;;;;;0.15;74.81;98079.14;108216;1274;22572;-72
2022/01/10 03:49:32;;;;;;;48.60;26.70;;;;;;;0.13;74.94;98086.93;108186;1274;22577;-73
2022/01/10 03:51:59;;;;;;;45.80;23.60;;;;;;;0.10;74.77;98087.51;108229;1273;22602;-73
2022/01/10 03:54:26;;;;;;;45.80;22.10;;;;;;;0.08;74.79;98091.02;108251;1274;22561;-73
2022/01/10 03:56:53;;;;;;;52.60;28.70;;;;;;;0.06;74.51;98096.04;108259;1274;22563;-73
2022/01/10 03:59:20;;;;;;;57.10;29.20;;;;;;;0.05;74.50;98096.41;108199;1274;22581;-73
2022/01/10 04:01:47;;;;;;;53.40;27.60;;;;;;;0.05;74.42;98095.90;108242;1274;22546;-72
2022/01/10 04:04:14;;;;;;;51.00;27.40;;;;;;;0.09;74.40;98100.07;108224;1274;25351;-73
2022/01/10 04:06:41;;;;;;;50.20;24.90;;;;;;;0.12;74.56;98101.50;108218;1274;22562;-72
2022/01/10 04:09:08;;;;;;;49.70;24.30;;;;;;;0.13;74.88;98102.67;108232;1274;25207;-72
2022/01/10 04:11:36;;;;;;;50.70;24.20;;;;;;;0.12;75.03;98108.70;108213;1274;23560;-73
2022/01/10 04:14:03;;;;;;;44.30;23.80;;;;;;;0.09;74.93;98108.79;108235;1274;22544;-72
2022/01/10 04:16:30;;;;;;;50.70;26.30;;;;;;;0.06;74.65;98118.47;108250;1274;22550;-74
2022/01/10 04:18:57;;;;;;;45.90;24.30;;;;;;;0.04;74.65;98121.27;108199;1274;26522;-76
2022/01/10 04:21:23;;;;;;;49.70;26.40;;;;;;;0.02;74.50;98127.83;108222;1274;22582;-76
2022/01/10 04:23:50;;;;;;;59.40;28.50;;;;;;;-0.01;74.55;98134.08;108211;1274;22621;-77
2022/01/10 04:26:17;;;;;;;76.30;35.60;;;;;;;-0.04;74.32;98129.90;108208;1274;22623;-77
2022/01/10 04:28:44;;;;;;;103.50;45.90;;;;;;;-0.02;74.36;98130.55;108214;1274;22564;-77
2022/01/10 04:31:12;;;;;;;105.90;44.80;;;;;;;-0.03;74.68;98137.59;108216;1274;22561;-73
2022/01/10 04:33:39;;;;;;;118.80;49.80;;;;;;;-0.08;75.05;98143.53;108184;1274;23390;-73
2022/01/10 04:36:06;;;;;;;127.20;53.50;;;;;;;-0.12;74.68;98147.62;108313;1274;22556;-74
2022/01/10 04:38:34;;;;;;;130.00;53.30;;;;;;;-0.17;74.30;98149.80;108194;1274;22543;-72
2022/01/10 04:41:03;;;;;;;141.60;57.50;;;;;;;-0.22;73.83;98153.73;108196;1274;22617;-73
2022/01/10 04:43:30;;;;;;;149.20;61.10;;;;;;;-0.30;73.52;98161.34;108606;1274;22578;-72
2022/01/10 04:45:57;;;;;;;137.60;58.90;;;;;;;-0.37;73.29;98168.38;108244;1274;22543;-72
2022/01/10 04:48:24;;;;;;;149.60;60.00;;;;;;;-0.45;72.98;98170.64;108261;1274;24269;-74
2022/01/10 04:53:30;;;;;;;141.20;61.00;;;;;;;-0.60;72.68;98177.73;108234;1274;22556;-72
2022/01/10 04:55:57;;;;;;;135.90;55.40;;;;;;;-0.68;72.56;98177.97;108239;1274;22564;-73
2022/01/10 04:58:24;;;;;;;132.20;55.10;;;;;;;-0.73;72.29;98185.63;108262;1274;22569;-73
2022/01/10 05:00:53;;;;;;;123.10;52.10;;;;;;;-0.79;72.25;98184.58;108252;1274;22571;-79
2022/01/10 05:03:21;;;;;;;130.10;52.80;;;;;;;-0.81;72.36;98189.77;108246;1274;22557;-79
2022/01/10 05:05:53;;;;;;;134.50;56.10;;;;;;;-0.82;72.71;98189.14;108251;1274;22541;-78
2022/01/10 05:08:21;;;;;;;142.30;62.60;;;;;;;-0.85;73.24;98192.61;108257;1274;22560;-79
2022/01/10 05:10:49;;;;;;;175.10;75.40;;;;;;;-0.91;73.14;98194.31;108258;1274;24273;-77
2022/01/10 05:13:17;;;;;;;180.20;77.60;;;;;;;-0.97;72.99;98199.95;108246;1274;23446;-75
2022/01/10 05:15:49;;;;;;;173.70;74.70;;;;;;;-1.03;72.85;98202.33;108248;1274;23114;-78
2022/01/10 05:18:21;;;;;;;153.10;65.10;;;;;;;-1.11;72.66;98211.77;108348;1274;23076;-77
2022/01/10 05:20:50;;;;;;;145.60;62.60;;;;;;;-1.19;72.49;98217.95;108492;1274;22557;-77
2022/01/10 05:23:17;;;;;;;139.80;62.30;;;;;;;-1.27;72.46;98220.17;108453;1274;22576;-77
2022/01/10 05:25:46;;;;;;;155.40;65.70;;;;;;;-1.33;72.44;98223.91;108246;1274;22552;-77
2022/01/10 05:28:17;;;;;;;163.10;68.50;;;;;;;-1.37;72.28;98225.91;108257;1274;22550;-77
2022/01/10 05:30:44;;;;;;;160.40;68.10;;;;;;;-1.42;72.25;98231.30;108237;1274;22617;-73
2022/01/10 05:33:13;;;;;;;145.10;64.50;;;;;;;-1.47;72.11;98229.89;108239;1274;22626;-73
2022/01/10 05:35:44;;;;;;;159.00;68.90;;;;;;;-1.47;72.26;98232.79;108267;1274;22544;-72
2022/01/10 05:38:12;;;;;;;148.40;68.80;;;;;;;-1.48;72.66;98233.33;108232;1274;22710;-72
2022/01/10 05:40:40;;;;;;;169.00;70.30;;;;;;;-1.51;72.90;98236.97;108313;1274;23029;-73
2022/01/10 05:43:07;;;;;;;170.60;73.30;;;;;;;-1.55;73.09;98241.70;108248;1274;22589;-73
2022/01/10 05:45:34;;;;;;;177.00;75.30;;;;;;;-1.62;72.94;98248.33;108229;1274;22773;-73
2022/01/10 05:48:08;;;;;;;171.40;74.20;;;;;;;-1.68;72.83;98248.98;108263;1274;24220;-73
2022/01/10 05:50:37;;;;;;;183.60;76.20;;;;;;;-1.75;72.63;98259.55;108262;1274;22551;-73
2022/01/10 05:53:04;;;;;;;171.40;73.20;;;;;;;-1.83;72.60;98262.98;108295;1272;22535;-74
2022/01/10 05:55:31;;;;;;;176.50;70.50;;;;;;;-1.91;72.45;98268.77;108228;1274;22567;-72
2022/01/10 05:57:58;;;;;;;158.30;69.50;;;;;;;-2.00;72.77;98272.89;108266;1274;25203;-72
2022/01/10 06:00:25;;;;;;;169.70;71.20;;;;;;;-2.08;72.71;98278.52;108250;1274;22604;-80
2022/01/10 06:02:52;;;;;;;170.30;74.30;;;;;;;-2.15;72.62;98283.60;108246;1274;22607;-77
2022/01/10 06:05:20;;;;;;;174.70;72.00;;;;;;;-2.18;72.47;98285.70;108221;1274;27688;-78
2022/01/10 06:07:47;;;;;;;163.80;71.80;;;;;;;-2.21;72.72;98290.37;108275;1274;22694;-77
2022/01/10 06:10:14;;;;;;;178.40;67.90;;;;;;;-2.26;73.27;98293.89;108307;1274;22565;-81
2022/01/10 06:12:41;;;;;;;177.70;69.90;;;;;;;-2.33;73.69;98301.86;108494;1274;22582;-80
2022/01/10 06:15:08;;;;;;;179.00;71.20;;;;;;;-2.39;73.49;98305.04;108438;1274;22556;-74
2022/01/10 06:17:35;;;;;;;184.70;75.20;;;;;;;-2.43;73.41;98312.30;108443;1274;22570;-78
2022/01/10 06:20:03;;;;;;;172.80;72.20;;;;;;;-2.48;73.13;98321.40;108436;1274;22560;-76
2022/01/10 06:22:30;;;;;;;190.20;73.40;;;;;;;-2.53;73.37;98326.80;108454;1274;22557;-73
2022/01/10 06:24:58;;;;;;;179.80;74.90;;;;;;;-2.58;73.15;98329.42;108434;1274;22552;-75
2022/01/10 06:27:26;;;;;;;195.40;78.70;;;;;;;-2.64;72.82;98335.84;108434;1274;22562;-72
2022/01/10 06:29:53;;;;;;;196.80;81.10;;;;;;;-2.69;72.80;98343.26;108477;1274;22541;-79
2022/01/10 06:32:20;;;;;;;189.50;75.50;;;;;;;-2.69;72.90;98347.03;108444;1274;22560;-77
2022/01/10 06:34:48;;;;;;;176.90;76.30;;;;;;;-2.70;73.42;98353.85;108439;1274;22585;-77
2022/01/10 06:37:15;;;;;;;188.70;76.10;;;;;;;-2.73;73.62;98356.11;108449;1274;22578;-77
2022/01/10 06:39:42;;;;;;;205.70;84.40;;;;;;;-2.76;73.98;98364.68;108457;1274;22489;-75
2022/01/10 06:42:09;;;;;;;212.30;85.70;;;;;;;-2.79;73.80;98372.92;108446;1274;24224;-77
2022/01/10 06:44:36;;;;;;;229.00;91.30;;;;;;;-2.83;73.59;98376.22;108449;1274;24387;-77
2022/01/10 06:47:03;;;;;;;219.40;91.70;;;;;;;-2.87;73.71;98380.21;108421;1274;22632;-77
2022/01/10 06:49:30;;;;;;;213.80;88.70;;;;;;;-2.93;73.63;98386.92;108420;1274;22649;-74
2022/01/10 06:51:58;;;;;;;235.40;88.80;;;;;;;-2.96;73.65;98393.80;108441;1274;22550;-78
2022/01/10 06:54:25;;;;;;;327.30;116.60;;;;;;;-2.99;73.40;98400.16;108485;1274;22615;-73
2022/01/10 06:56:52;;;;;;;332.20;109.80;;;;;;;-3.02;73.26;98402.23;108469;1274;25512;-78
2022/01/10 06:59:20;;;;;;;223.40;84.60;;;;;;;-2.98;73.84;98408.84;108421;1274;23361;-77
2022/01/10 07:01:46;;;;;;;188.00;72.40;;;;;;;-2.96;74.53;98413.73;108415;1274;22552;-79
2022/01/10 07:04:13;;;;;;;172.60;62.00;;;;;;;-2.91;75.15;98420.48;108459;1274;22570;-72
2022/01/10 07:06:41;;;;;;;164.30;61.80;;;;;;;-2.91;75.09;98423.37;108449;1274;22563;-72
2022/01/10 07:09:08;;;;;;;200.20;73.10;;;;;;;-2.89;74.86;98420.63;108433;1274;22587;-77
2022/01/10 07:11:35;;;;;;;223.00;82.30;;;;;;;-2.87;74.55;98429.29;108434;1274;22535;-77
2022/01/10 07:14:03;;;;;;;176.20;64.80;;;;;;;-2.85;74.37;98432.48;108454;1274;22553;-73
2022/01/10 07:16:30;;;;;;;178.20;64.80;;;;;;;-2.83;74.10;98434.83;108463;1274;22554;-76
2022/01/10 07:18:57;;;;;;;194.10;72.30;;;;;;;-2.81;74.08;98440.11;108472;1274;24459;-75
2022/01/10 07:21:24;;;;;;;164.60;62.50;;;;;;;-2.80;73.86;98446.91;108410;1274;22634;-74
2022/01/10 07:23:51;;;;;;;170.60;71.40;;;;;;;-2.77;73.74;98456.91;108469;1274;22586;-75
2022/01/10 07:26:18;;;;;;;155.00;60.10;;;;;;;-2.71;73.82;98462.27;108230;1274;22731;-76
2022/01/10 07:28:45;;;;;;;130.10;54.60;;;;;;;-2.64;74.38;98470.87;108234;1274;22583;-76
2022/01/10 07:31:12;;;;;;;129.10;53.10;;;;;;;-2.59;74.90;98474.89;108258;1274;22560;-76
2022/01/10 07:33:39;;;;;;;143.60;60.50;;;;;;;-2.56;74.89;98477.91;108227;1274;22559;-75
2022/01/10 07:36:06;;;;;;;162.40;66.90;;;;;;;-2.54;74.69;98485.55;108229;1274;25046;-75
2022/01/10 07:38:35;;;;;;;119.70;50.30;;;;;;;-2.50;74.15;98491.11;108234;1274;23836;-73
2022/01/10 07:41:06;;;;;;;110.40;43.70;;;;;;;-2.49;73.99;98498.08;108257;1274;22610;-75
2022/01/10 07:43:34;;;;;;;78.60;31.40;;;;;;;-2.49;73.75;98500.30;108258;1274;22621;-76
2022/01/10 07:46:03;;;;;;;98.70;41.30;;;;;;;-2.48;73.40;98502.67;108694;1274;23480;-73
2022/01/10 07:48:34;;;;;;;92.90;37.80;;;;;;;-2.52;73.39;98514.68;108231;1274;22567;-76
2022/01/10 07:51:03;;;;;;;87.10;34.80;;;;;;;-2.52;73.25;98519.13;108249;1274;22559;-76
2022/01/10 07:53:30;;;;;;;92.10;37.50;;;;;;;-2.54;73.12;98522.55;108243;1274;22564;-75
2022/01/10 07:55:57;;;;;;;98.60;40.50;;;;;;;-2.54;73.05;98529.03;108283;1274;22570;-75
2022/01/10 07:58:24;;;;;;;103.20;42.70;;;;;;;-2.49;73.16;98538.17;108257;1274;22567;-73
2022/01/10 08:00:51;;;;;;;113.40;45.20;;;;;;;-2.44;73.39;98537.08;108242;1274;22621;-75
2022/01/10 08:03:18;;;;;;;114.80;48.30;;;;;;;-2.40;73.77;98540.41;108195;1274;22564;-75
2022/01/10 08:05:44;;;;;;;122.60;49.80;;;;;;;-2.39;73.74;98546.70;108196;1274;22565;-74
2022/01/10 08:08:11;;;;;;;127.60;48.90;;;;;;;-2.35;73.70;98552.29;108227;1274;22606;-75
2022/01/10 08:10:38;;;;;;;115.90;49.30;;;;;;;-2.29;73.21;98555.78;108208;1274;24549;-72
2022/01/10 08:13:06;;;;;;;113.20;47.00;;;;;;;-2.27;72.90;98560.02;108180;1274;23448;-75
2022/01/10 08:15:33;;;;;;;135.40;53.40;;;;;;;-2.26;72.46;98564.61;108247;1274;22582;-76
2022/01/10 08:18:01;;;;;;;150.20;57.40;;;;;;;-2.23;72.47;98563.36;108245;1274;23589;-78
2022/01/10 08:20:27;;;;;;;111.80;46.30;;;;;;;-2.20;72.32;98562.97;108712;1274;22572;-75
2022/01/10 08:22:54;;;;;;;114.90;47.40;;;;;;;-2.17;72.20;98566.52;108212;1274;25036;-76
2022/01/10 08:25:21;;;;;;;106.00;44.70;;;;;;;-2.13;72.01;98574.30;108183;1274;23107;-75
2022/01/10 08:27:48;;;;;;;126.50;48.20;;;;;;;-2.12;71.87;98579.05;108191;1274;22560;-74
2022/01/10 08:30:16;;;;;;;102.30;43.90;;;;;;;-2.10;71.88;98588.08;108226;1274;23474;-72
2022/01/10 08:32:44;;;;;;;115.00;48.30;;;;;;;-2.06;71.94;98591.08;108210;1274;22718;-72
2022/01/10 08:35:11;;;;;;;110.20;47.00;;;;;;;-2.01;71.67;98594.58;108192;1274;22574;-72
2022/01/10 08:37:38;;;;;;;106.90;45.20;;;;;;;-1.96;71.51;98596.71;108200;1274;22602;-74
2022/01/10 08:40:06;;;;;;;120.60;49.10;;;;;;;-1.90;71.13;98605.00;108200;1274;23264;-72
2022/01/10 08:42:33;;;;;;;111.80;45.60;;;;;;;-1.82;71.27;98609.33;108457;1271;22584;-73
2022/01/10 08:45:00;;;;;;;94.30;41.20;;;;;;;-1.72;71.58;98613.77;108235;1274;22709;-72
2022/01/10 08:47:27;;;;;;;100.10;42.70;;;;;;;-1.66;71.47;98619.45;108249;1274;23209;-73
2022/01/10 08:49:54;;;;;;;114.30;48.40;;;;;;;-1.65;71.54;98626.95;108212;1274;22613;-73
2022/01/10 08:52:21;;;;;;;95.50;42.20;;;;;;;-1.60;71.21;98629.27;108243;1274;22550;-76
2022/01/10 08:54:49;;;;;;;97.30;41.10;;;;;;;-1.56;71.05;98633.30;108229;1274;22579;-72
2022/01/10 08:57:18;;;;;;;88.50;38.70;;;;;;;-1.52;70.62;98634.77;108202;1274;22555;-72
2022/01/10 08:59:46;;;;;;;93.40;39.80;;;;;;;-1.47;70.32;98635.88;108194;1274;22539;-70
2022/01/10 09:02:13;;;;;;;100.60;42.90;;;;;;;-1.43;70.30;98643.31;108184;1274;22578;-76
2022/01/10 09:04:41;;;;;;;85.90;39.80;;;;;;;-1.36;69.96;98644.05;108227;1273;22624;-72
2022/01/10 09:07:08;;;;;;;97.50;41.70;;;;;;;-1.32;69.68;98647.23;108214;1274;22670;-73
2022/01/10 09:09:37;;;;;;;89.60;39.30;;;;;;;-1.25;69.50;98656.68;108244;1274;22651;-73
2022/01/10 09:12:04;;;;;;;70.10;32.00;;;;;;;-1.20;69.11;98666.00;108190;1274;22547;-73
2022/01/10 09:14:31;;;;;;;63.30;30.90;;;;;;;-1.14;68.41;98664.70;108286;1274;22674;-73
2022/01/10 09:16:59;;;;;;;61.40;27.90;;;;;;;-1.16;67.95;98666.77;108252;1274;22597;-77
2022/01/10 09:19:26;;;;;;;54.50;25.00;;;;;;;-1.19;67.48;98668.20;108224;1274;22606;-75
2022/01/10 09:21:53;;;;;;;60.70;29.40;;;;;;;-1.18;67.35;98672.12;108512;1274;22552;-77
2022/01/10 09:24:20;;;;;;;60.10;29.00;;;;;;;-1.18;67.49;98676.38;108192;1274;22688;-76
2022/01/10 09:26:47;;;;;;;82.20;34.60;;;;;;;-1.13;67.05;98680.05;108230;1274;22595;-78
2022/01/10 09:29:14;;;;;;;79.20;35.60;;;;;;;-1.09;66.36;98682.05;108236;1274;22563;-77
2022/01/10 09:31:42;;;;;;;67.00;32.40;;;;;;;-1.04;66.22;98680.75;108212;1274;24242;-76
2022/01/10 09:34:09;;;;;;;85.90;36.80;;;;;;;-0.98;66.18;98684.91;108225;1274;22557;-73
2022/01/10 09:36:36;;;;;;;83.40;37.10;;;;;;;-0.99;66.18;98691.78;108207;1274;25309;-77
2022/01/10 09:39:04;;;;;;;73.40;33.10;;;;;;;-0.96;65.99;98692.59;108196;1274;23071;-72
2022/01/10 09:41:32;;;;;;;63.40;29.90;;;;;;;-0.93;65.08;98696.63;108264;1274;22767;-72
2022/01/10 09:44:01;;;;;;;58.60;27.50;;;;;;;-0.93;64.48;98698.16;108259;1274;22538;-75
2022/01/10 09:46:29;;;;;;;56.90;27.70;;;;;;;-0.97;64.78;98699.77;108231;1274;22590;-74
2022/01/10 09:49:00;;;;;;;55.60;26.30;;;;;;;-0.97;64.27;98705.23;108235;1274;22573;-73
2022/01/10 09:51:28;;;;;;;53.10;23.80;;;;;;;-0.97;64.46;98706.77;108244;1274;22587;-71
2022/01/10 09:53:58;;;;;;;65.70;29.20;;;;;;;-0.96;64.54;98709.66;108211;1274;22572;-73
2022/01/10 09:56:26;;;;;;;55.60;25.70;;;;;;;-0.95;64.81;98713.75;108184;1274;22576;-73
2022/01/10 09:58:54;;;;;;;53.10;25.60;;;;;;;-0.90;64.61;98714.67;108204;1274;25553;-73
2022/01/10 10:01:21;;;;;;;41.90;23.00;;;;;;;-0.87;64.40;98713.62;108186;1274;22539;-77
2022/01/10 10:03:49;;;;;;;57.10;26.40;;;;;;;-0.84;64.11;98717.83;108262;1274;22637;-74
2022/01/10 10:06:18;;;;;;;44.90;21.80;;;;;;;-0.86;64.37;98724.02;108209;1274;22630;-76
2022/01/10 10:08:45;;;;;;;56.30;25.10;;;;;;;-0.84;64.21;98727.41;108242;1274;22563;-76
2022/01/10 10:11:13;;;;;;;40.30;19.60;;;;;;;-0.81;64.40;98725.82;108552;1274;22545;-77
2022/01/10 10:13:54;;;;;;;50.20;22.70;;;;;;;-0.75;64.01;98728.45;108184;1274;24409;-72
2022/01/10 10:16:22;;;;;;;119.90;49.40;;;;;;;-0.76;64.06;98727.60;108215;1274;22576;-73
2022/01/10 10:18:50;;;;;;;97.70;47.20;;;;;;;-0.72;63.99;98735.90;108794;1274;22605;-75
2022/01/10 10:21:20;;;;;;;51.30;25.60;;;;;;;-0.67;63.67;98736.84;108242;1274;22589;-73
2022/01/10 10:23:49;;;;;;;49.70;23.50;;;;;;;-0.69;63.39;98738.58;108237;1274;22553;-76
2022/01/10 10:26:19;;;;;;;67.10;36.00;;;;;;;-0.67;63.86;98742.32;108217;1274;22567;-77
2022/01/10 10:28:48;;;;;;;64.70;34.40;;;;;;;-0.63;63.85;98747.18;108201;1274;25310;-73
2022/01/10 10:31:42;;;;;;;64.90;31.20;;;;;;;-0.58;63.71;98750.19;108228;1274;22566;-73
2022/01/10 10:34:09;;;;;;;63.50;31.80;;;;;;;-0.60;63.89;98755.02;108219;1274;22568;-77
2022/01/10 10:36:37;;;;;;;60.50;31.40;;;;;;;-0.59;64.58;98761.50;108209;1274;24086;-74
2022/01/10 10:39:07;;;;;;;74.80;30.50;;;;;;;-0.56;64.76;98768.13;108309;1274;22583;-77
2022/01/10 10:41:35;;;;;;;103.40;46.70;;;;;;;-0.64;63.92;98768.27;108198;1274;22576;-74
2022/01/10 10:44:03;;;;;;;75.40;38.30;;;;;;;-0.73;63.79;98777.48;108209;1274;22701;-71
2022/01/10 10:46:30;;;;;;;67.40;35.00;;;;;;;-0.82;64.17;98777.64;108214;1274;23464;-73
2022/01/10 10:49:05;;;;;;;60.60;31.50;;;;;;;-0.80;64.13;98781.87;108199;1274;22698;-73
2022/01/10 10:51:36;;;;;;;60.80;26.40;;;;;;;-0.90;64.51;98785.11;108210;1274;24444;-75
2022/01/10 10:54:08;;;;;;;63.60;31.30;;;;;;;-1.00;64.97;98787.52;108216;1274;25380;-72
2022/01/10 10:56:37;;;;;;;77.10;34.80;;;;;;;-1.05;65.23;98786.07;108176;1274;22604;-72
2022/01/10 10:59:07;;;;;;;58.10;29.90;;;;;;;-1.12;65.45;98788.23;108239;1274;22780;-72
2022/01/10 11:01:40;;;;;;;56.70;28.00;;;;;;;-1.20;65.60;98793.80;108189;1274;22573;-73
2022/01/10 11:04:09;;;;;;;47.80;23.10;;;;;;;-1.28;65.71;98798.73;108178;1274;22557;-72
2022/01/10 11:06:38;;;;;;;31.10;15.50;;;;;;;-1.31;65.79;98807.84;108193;1274;22665;-73
2022/01/10 11:09:09;;;;;;;46.00;21.70;;;;;;;-1.30;65.96;98814.47;108182;1274;23089;-75
2022/01/10 11:11:37;;;;;;;56.80;24.00;;;;;;;-1.36;66.56;98817.31;108207;1274;22567;-74
2022/01/10 11:14:05;;;;;;;53.10;27.10;;;;;;;-1.41;66.71;98819.27;108205;1274;25556;-73
2022/01/10 11:16:37;;;;;;;41.90;19.90;;;;;;;-1.42;66.77;98822.86;108207;1274;25980;-73
2022/01/10 11:19:22;;;;;;;65.90;29.90;;;;;;;-1.43;66.90;98827.83;108212;1274;22687;-74
2022/01/10 11:22:09;;;;;;;48.30;22.90;;;;;;;-1.54;67.22;98832.41;108204;1274;22579;-76
2022/01/10 11:24:42;;;;;;;61.90;24.70;;;;;;;-1.56;67.24;98836.20;108423;1274;22808;-75
2022/01/10 11:27:31;;;;;;;81.80;29.90;;;;;;;-1.64;67.42;98848.94;108432;1274;22604;-74